Time;durP1;ratioP1;P1;durP2;ratioP2;P2;SDS_P1;SDS_P2;PMS_P1;PMS_P2;Temp;Humidity;BMP_temperature;BMP_pressure;BME280_temperature;BME280_humidity;BME280_pressure;Samples;Min_cycle;Max_cycle;Signal;HPM_P1;HPM_P2
2022/09/11 00:00:53;;;;;;;7.28;5.72;;;;;;;18.98;100.00;94334.06;5014797;28;20581;-61
2022/09/11 00:03:20;;;;;;;9.27;6.30;;;;;;;18.86;100.00;94320.13;5032455;28;20190;-61
2022/09/11 00:05:46;;;;;;;8.32;5.97;;;;;;;18.87;100.00;94324.28;5032357;28;20198;-59
2022/09/11 00:08:15;;;;;;;7.32;6.35;;;;;;;18.83;100.00;94318.72;5032332;28;20201;-60
2022/09/11 00:10:41;;;;;;;11.70;5.78;;;;;;;18.81;100.00;94318.09;5032125;28;20209;-60
2022/09/11 00:13:13;;;;;;;6.40;5.78;;;;;;;18.84;100.00;94312.59;5032264;28;20254;-62
2022/09/11 00:15:41;;;;;;;9.73;6.85;;;;;;;18.84;100.00;94314.38;5032226;28;20620;-61
2022/09/11 00:18:07;;;;;;;9.93;6.20;;;;;;;18.86;100.00;94326.06;5032136;28;20624;-62
2022/09/11 00:20:33;;;;;;;8.73;6.07;;;;;;;18.81;100.00;94314.72;5032022;28;20213;-60
2022/09/11 00:23:03;;;;;;;9.35;6.22;;;;;;;18.83;100.00;94320.47;5032139;28;20268;-62
2022/09/11 00:25:33;;;;;;;8.73;7.15;;;;;;;18.75;100.00;94315.47;5032204;28;20655;-64
2022/09/11 00:28:00;;;;;;;7.68;6.68;;;;;;;18.68;100.00;94310.31;5031818;28;20186;-61
2022/09/11 00:30:27;;;;;;;7.93;6.88;;;;;;;18.70;100.00;94321.22;5031671;28;20572;-62
2022/09/11 00:32:55;;;;;;;10.57;9.27;;;;;;;18.66;100.00;94312.25;5031978;28;20197;-63
2022/09/11 00:35:22;;;;;;;9.32;7.18;;;;;;;18.70;100.00;94312.69;5014175;28;20210;-63
2022/09/11 00:37:47;;;;;;;7.80;6.78;;;;;;;18.56;100.00;94306.66;5031802;28;20194;-62
2022/09/11 00:40:14;;;;;;;8.93;6.57;;;;;;;18.58;100.00;94317.56;5031860;28;20212;-62
2022/09/11 00:42:40;;;;;;;10.60;7.60;;;;;;;18.53;100.00;94308.78;5031724;28;20197;-62
2022/09/11 00:45:07;;;;;;;7.75;6.95;;;;;;;18.49;100.00;94317.84;5032106;28;20575;-63
2022/09/11 00:47:34;;;;;;;8.73;6.60;;;;;;;18.50;100.00;94322.03;5031808;28;20190;-61
2022/09/11 00:50:11;;;;;;;9.77;7.35;;;;;;;18.50;100.00;94324.59;5032009;28;20585;-62
2022/09/11 00:52:43;;;;;;;8.23;6.82;;;;;;;18.51;100.00;94321.03;5014461;28;20277;-59
2022/09/11 00:55:13;;;;;;;12.05;6.72;;;;;;;18.46;100.00;94326.75;5031640;28;20222;-62
2022/09/11 00:57:45;;;;;;;10.02;7.10;;;;;;;18.45;100.00;94317.44;5031692;28;20618;-62
2022/09/11 01:00:12;;;;;;;8.48;6.85;;;;;;;18.48;100.00;94327.38;5031597;28;20587;-63
2022/09/11 01:02:41;;;;;;;11.05;7.20;;;;;;;18.48;100.00;94321.41;5031650;28;20186;-63
2022/09/11 01:05:08;;;;;;;7.32;6.63;;;;;;;18.43;100.00;94322.78;5031352;28;20304;-61
2022/09/11 01:07:35;;;;;;;7.25;6.00;;;;;;;18.40;100.00;94322.31;5031692;28;20684;-61
2022/09/11 01:10:02;;;;;;;11.88;6.80;;;;;;;18.35;100.00;94317.72;4997297;28;20214;-63
2022/09/11 01:12:31;;;;;;;7.65;6.82;;;;;;;18.31;100.00;94324.22;5013411;28;20210;-60
2022/09/11 01:15:07;;;;;;;7.88;6.55;;;;;;;18.24;100.00;94331.06;5031539;28;20217;-61
2022/09/11 01:18:10;;;;;;;13.23;7.22;;;;;;;18.20;100.00;94329.06;5031326;28;20288;-62
2022/09/11 01:20:53;;;;;;;7.22;6.45;;;;;;;18.17;100.00;94334.56;5031174;28;20210;-63
2022/09/11 01:23:50;;;;;;;8.32;6.18;;;;;;;18.21;100.00;94330.66;5031146;28;20182;-62
2022/09/11 01:26:19;;;;;;;6.88;6.25;;;;;;;18.11;100.00;94333.53;5013544;28;20201;-63
2022/09/11 01:28:56;;;;;;;7.55;6.20;;;;;;;18.13;100.00;94339.31;5031317;28;20214;-62
2022/09/11 01:31:28;;;;;;;9.20;6.95;;;;;;;18.10;100.00;94336.31;5013234;28;20206;-61
2022/09/11 01:33:59;;;;;;;7.60;6.43;;;;;;;18.07;100.00;94328.94;5031174;28;20214;-61
2022/09/11 01:36:49;;;;;;;7.53;6.70;;;;;;;18.00;100.00;94328.88;5031066;28;20192;-62
2022/09/11 01:39:21;;;;;;;12.15;7.03;;;;;;;18.00;100.00;94331.44;5030131;28;20300;-62
2022/09/11 01:41:52;;;;;;;11.13;6.72;;;;;;;18.03;100.00;94331.09;5013251;28;20269;-63
2022/09/11 01:44:21;;;;;;;7.85;6.38;;;;;;;18.00;100.00;94328.88;5013251;28;20598;-62
2022/09/11 01:46:50;;;;;;;6.50;5.82;;;;;;;18.04;100.00;94326.75;5030953;28;20182;-60
2022/09/11 01:49:30;;;;;;;11.55;6.63;;;;;;;18.07;100.00;94324.59;5030703;28;20221;-62
2022/09/11 01:52:02;;;;;;;9.57;6.63;;;;;;;18.07;100.00;94316.88;5030864;28;20210;-61
2022/09/11 01:54:36;;;;;;;7.93;6.38;;;;;;;18.14;100.00;94316.94;5031108;28;20221;-63
2022/09/11 01:57:12;;;;;;;7.10;5.75;;;;;;;18.15;100.00;94321.91;5012954;28;20189;-63
2022/09/11 01:59:46;;;;;;;6.25;5.65;;;;;;;18.26;100.00;94318.81;5014209;28;20275;-61
2022/09/11 02:02:16;;;;;;;6.90;6.20;;;;;;;18.23;100.00;94313.25;5030756;28;20186;-61
2022/09/11 02:04:51;;;;;;;7.53;6.72;;;;;;;18.34;100.00;94313.53;5030596;28;20662;-61
2022/09/11 02:07:22;;;;;;;7.30;6.57;;;;;;;18.40;100.00;94319.75;5013018;28;20681;-61
2022/09/11 02:10:05;;;;;;;7.22;6.22;;;;;;;18.48;100.00;94322.22;5012738;28;20221;-61
2022/09/11 02:12:39;;;;;;;10.05;5.68;;;;;;;18.51;100.00;94321.03;5030452;28;20555;-63
2022/09/11 02:15:07;;;;;;;7.88;6.30;;;;;;;18.57;100.00;94317.72;5031057;28;20213;-61
2022/09/11 02:18:00;;;;;;;6.82;6.13;;;;;;;18.59;100.00;94326.84;5030757;28;20266;-61
2022/09/11 02:20:27;;;;;;;8.32;6.60;;;;;;;18.81;100.00;94341.28;5030546;28;20222;-62
2022/09/11 02:22:53;;;;;;;6.20;5.50;;;;;;;18.64;100.00;94337.41;5030371;28;20182;-60
2022/09/11 02:25:18;;;;;;;6.43;5.82;;;;;;;18.60;100.00;94325.09;5030373;28;20214;-62
2022/09/11 02:27:44;;;;;;;7.13;5.97;;;;;;;18.57;100.00;94315.13;5030465;28;20194;-62
2022/09/11 02:30:11;;;;;;;7.47;6.18;;;;;;;18.54;100.00;94315.53;5030263;28;20210;-61
2022/09/11 02:32:42;;;;;;;6.32;5.70;;;;;;;18.52;100.00;94308.00;5030219;28;20226;-61
2022/09/11 02:35:09;;;;;;;6.97;5.60;;;;;;;18.47;100.00;94310.31;5012991;28;20210;-61
2022/09/11 02:37:58;;;;;;;7.07;5.88;;;;;;;18.53;100.00;94314.72;5030233;28;20186;-61
2022/09/11 02:40:42;;;;;;;7.18;6.30;;;;;;;18.58;100.00;94320.13;5030354;28;20214;-60
2022/09/11 02:43:27;;;;;;;8.77;6.35;;;;;;;18.80;100.00;94333.75;5030330;28;20198;-59
2022/09/11 02:45:55;;;;;;;6.38;5.78;;;;;;;18.66;100.00;94329.50;5030303;28;20182;-63
2022/09/11 02:48:21;;;;;;;6.10;5.50;;;;;;;18.38;100.00;94312.19;5030211;28;20194;-63
2022/09/11 02:50:58;;;;;;;6.13;5.53;;;;;;;18.44;100.00;94311.47;5032895;28;20206;-63
2022/09/11 02:53:46;;;;;;;6.65;5.30;;;;;;;18.48;100.00;94317.09;5033572;28;20190;-61
2022/09/11 02:56:27;;;;;;;7.03;5.65;;;;;;;18.59;100.00;94321.72;5033587;28;20190;-60
2022/09/11 02:58:55;;;;;;;6.25;5.65;;;;;;;18.22;100.00;94297.00;5033592;28;20229;-62
2022/09/11 03:01:22;;;;;;;6.47;5.57;;;;;;;18.11;100.00;94297.53;5033260;28;20633;-62
2022/09/11 03:03:48;;;;;;;8.23;6.10;;;;;;;18.20;100.00;94303.34;5033519;28;20218;-62
2022/09/11 03:06:26;;;;;;;9.52;5.70;;;;;;;18.24;100.00;94307.16;5015563;28;20738;-62
2022/09/11 03:08:51;;;;;;;6.82;6.13;;;;;;;18.24;100.00;94309.72;5015725;28;20710;-62
2022/09/11 03:11:17;;;;;;;9.48;6.72;;;;;;;18.19;100.00;94304.31;5015483;28;20248;-60
2022/09/11 03:13:43;;;;;;;7.53;6.25;;;;;;;18.26;100.00;94307.75;5033258;28;20213;-61
2022/09/11 03:16:11;;;;;;;7.85;6.07;;;;;;;18.21;100.00;94304.91;5033045;28;20266;-63
2022/09/11 03:18:36;;;;;;;7.80;6.28;;;;;;;18.17;100.00;94314.78;5033111;28;20214;-62
2022/09/11 03:21:02;;;;;;;6.78;5.97;;;;;;;18.15;100.00;94314.19;5033296;28;20190;-61
2022/09/11 03:23:29;;;;;;;10.15;6.60;;;;;;;18.26;100.00;94318.03;5015219;28;20729;-63
2022/09/11 03:25:54;;;;;;;6.60;5.90;;;;;;;18.08;100.00;94321.03;5015119;28;20722;-62
2022/09/11 03:28:24;;;;;;;7.80;6.95;;;;;;;18.08;100.00;94315.88;5033021;28;20194;-62
2022/09/11 03:30:51;;;;;;;7.18;6.45;;;;;;;18.05;100.00;94331.69;5015093;28;20225;-61
2022/09/11 03:33:17;;;;;;;7.35;6.63;;;;;;;17.91;100.00;94321.44;5032884;28;20269;-61
2022/09/11 03:35:43;;;;;;;11.50;7.55;;;;;;;17.77;100.00;94328.25;5032710;28;20586;-62
2022/09/11 03:38:10;;;;;;;8.40;6.38;;;;;;;17.92;100.00;94330.75;5032855;28;20198;-63
2022/09/11 03:40:36;;;;;;;9.98;6.90;;;;;;;18.17;100.00;94334.56;5014873;28;20206;-62
2022/09/11 03:43:02;;;;;;;7.47;6.65;;;;;;;18.10;100.00;94338.88;5014974;28;20217;-61
2022/09/11 03:45:27;;;;;;;10.10;8.10;;;;;;;17.92;100.00;94338.47;5032759;28;20349;-62
2022/09/11 03:47:53;;;;;;;8.50;7.43;;;;;;;17.88;100.00;94342.38;5014871;28;20605;-61
2022/09/11 03:50:18;;;;;;;9.93;7.00;;;;;;;17.90;100.00;94341.22;5032628;28;20221;-61
2022/09/11 03:52:44;;;;;;;10.07;6.68;;;;;;;17.89;100.00;94342.22;5032783;28;20190;-62
2022/09/11 03:55:09;;;;;;;8.48;6.70;;;;;;;17.87;100.00;94351.09;5032633;28;20217;-61
2022/09/11 03:57:37;;;;;;;9.88;7.07;;;;;;;17.88;100.00;94350.09;5032399;28;20270;-62
2022/09/11 04:00:21;;;;;;;11.63;9.93;;;;;;;17.76;100.00;94360.06;5032592;28;20210;-61
2022/09/11 04:02:47;;;;;;;8.95;6.57;;;;;;;17.86;100.00;94352.84;5031713;28;20183;-61
2022/09/11 04:05:12;;;;;;;10.30;6.63;;;;;;;17.84;100.00;94354.00;5032322;28;20212;-62
2022/09/11 04:07:38;;;;;;;9.90;7.15;;;;;;;17.78;100.00;94360.69;5032189;28;20182;-62
2022/09/11 04:10:04;;;;;;;11.68;7.68;;;;;;;17.82;100.00;94346.47;5032589;28;20263;-62
2022/09/11 04:12:29;;;;;;;8.52;6.88;;;;;;;17.79;100.00;94348.63;5014335;28;20711;-61
2022/09/11 04:14:55;;;;;;;7.93;6.35;;;;;;;17.98;100.00;94341.09;5032473;28;20289;-62
2022/09/11 04:17:21;;;;;;;11.30;7.13;;;;;;;18.13;100.00;94354.75;5032024;28;20190;-62
2022/09/11 04:19:47;;;;;;;7.07;6.38;;;;;;;18.16;100.00;94359.50;5032157;28;20218;-61
2022/09/11 04:22:12;;;;;;;7.90;6.82;;;;;;;18.03;100.00;94351.66;5014374;28;20265;-62
2022/09/11 04:24:37;;;;;;;7.20;6.53;;;;;;;17.94;100.00;94355.31;5031971;28;20737;-61
2022/09/11 04:27:04;;;;;;;7.88;6.68;;;;;;;17.79;100.00;94353.75;5032135;28;20257;-62
2022/09/11 04:29:31;;;;;;;10.52;7.05;;;;;;;17.64;100.00;94351.22;5032344;28;20707;-61
2022/09/11 04:31:56;;;;;;;9.15;6.57;;;;;;;17.67;100.00;94350.06;5031862;28;20217;-62
2022/09/11 04:34:22;;;;;;;9.70;6.85;;;;;;;17.66;100.00;94354.41;5031819;28;20700;-60
2022/09/11 04:36:47;;;;;;;7.55;6.60;;;;;;;17.64;100.00;94361.50;5031918;28;20185;-61
2022/09/11 04:39:13;;;;;;;7.50;6.47;;;;;;;17.67;100.00;94353.44;5031942;28;20213;-63
2022/09/11 04:41:38;;;;;;;9.93;7.35;;;;;;;17.54;100.00;94354.06;5031812;28;20191;-61
2022/09/11 04:44:03;;;;;;;13.43;6.97;;;;;;;17.55;100.00;94358.22;5031892;28;20264;-61
2022/09/11 04:46:29;;;;;;;10.15;6.55;;;;;;;17.46;100.00;94363.63;5031686;28;20210;-61
2022/09/11 04:48:58;;;;;;;7.47;5.95;;;;;;;17.39;100.00;94360.19;4997383;28;20214;-61
2022/09/11 04:51:41;;;;;;;11.27;6.60;;;;;;;17.43;100.00;94366.56;5031477;28;20573;-62
2022/09/11 04:54:11;;;;;;;7.32;6.07;;;;;;;17.28;100.00;94363.97;5031227;28;20210;-61
2022/09/11 04:56:37;;;;;;;10.25;6.93;;;;;;;17.21;100.00;94357.16;5031698;28;20251;-60
2022/09/11 04:59:12;;;;;;;8.23;7.20;;;;;;;17.29;100.00;94362.22;5031644;28;20202;-59
2022/09/11 05:01:38;;;;;;;8.05;6.90;;;;;;;17.26;100.00;94360.78;5031643;28;20636;-62
2022/09/11 05:04:04;;;;;;;14.45;7.43;;;;;;;17.28;100.00;94365.75;5031568;28;20224;-61
2022/09/11 05:06:30;;;;;;;10.52;6.85;;;;;;;17.26;100.00;94365.13;5031311;28;20191;-61
2022/09/11 05:09:00;;;;;;;13.80;6.90;;;;;;;17.28;100.00;94361.41;5031441;28;20746;-63
2022/09/11 05:11:26;;;;;;;10.52;8.00;;;;;;;17.26;100.00;94365.13;5013534;28;20221;-61
2022/09/11 05:13:52;;;;;;;8.95;7.88;;;;;;;17.28;100.00;94363.97;5031410;28;20267;-62
2022/09/11 05:16:18;;;;;;;9.50;8.13;;;;;;;17.21;100.00;94362.31;5031247;28;20183;-61
2022/09/11 05:18:50;;;;;;;12.98;8.52;;;;;;;17.28;100.00;94366.56;5031352;28;20275;-63
2022/09/11 05:21:17;;;;;;;13.10;10.98;;;;;;;17.25;100.00;94364.31;5031082;28;20193;-62
2022/09/11 05:23:47;;;;;;;11.18;9.32;;;;;;;17.24;100.00;94364.50;5031340;28;20337;-61
2022/09/11 05:26:15;;;;;;;15.45;11.40;;;;;;;17.29;100.00;94362.22;5013292;28;20192;-62
2022/09/11 05:28:40;;;;;;;12.00;8.57;;;;;;;17.40;100.00;94365.13;5031229;28;20300;-62
2022/09/11 05:31:15;;;;;;;11.20;10.07;;;;;;;17.49;100.00;94366.66;5031077;28;20719;-62
2022/09/11 05:33:41;;;;;;;15.45;9.07;;;;;;;17.73;100.00;94380.19;5030909;28;20216;-62
2022/09/11 05:36:08;;;;;;;10.68;7.95;;;;;;;17.90;100.00;94368.72;5030980;28;20186;-61
2022/09/11 05:38:35;;;;;;;11.88;9.23;;;;;;;17.92;100.00;94362.41;5031057;28;20216;-63
2022/09/11 05:41:04;;;;;;;10.63;9.52;;;;;;;17.97;100.00;94367.81;5031104;28;20212;-62
2022/09/11 05:43:30;;;;;;;13.82;9.35;;;;;;;17.99;100.00;94353.00;5030911;28;20666;-63
2022/09/11 05:45:57;;;;;;;12.77;10.57;;;;;;;17.93;100.00;94353.75;5030738;28;20208;-60
2022/09/11 05:48:31;;;;;;;15.10;9.20;;;;;;;18.10;100.00;94352.50;5030863;28;20557;-61
2022/09/11 05:51:01;;;;;;;11.05;9.73;;;;;;;18.18;100.00;94359.34;5030631;28;20220;-60
2022/09/11 05:53:32;;;;;;;14.02;10.32;;;;;;;18.10;100.00;94360.22;5030952;28;20543;-62
2022/09/11 05:56:05;;;;;;;9.55;8.52;;;;;;;18.23;100.00;94357.00;5012905;28;20225;-61
2022/09/11 05:58:31;;;;;;;10.43;9.23;;;;;;;18.39;100.00;94365.28;5030951;28;20554;-63
2022/09/11 06:01:24;;;;;;;12.07;8.63;;;;;;;18.48;100.00;94365.19;5012999;28;20194;-61
2022/09/11 06:03:50;;;;;;;18.73;9.32;;;;;;;18.61;100.00;94370.44;5027430;28;20719;-61
2022/09/11 06:06:17;;;;;;;11.50;9.90;;;;;;;18.50;100.00;94378.66;5030692;28;20273;-62
2022/09/11 06:08:43;;;;;;;12.20;9.73;;;;;;;18.51;100.00;94368.19;5030676;28;20214;-61
2022/09/11 06:11:12;;;;;;;11.25;9.18;;;;;;;18.77;100.00;94368.41;5030481;28;20214;-63
2022/09/11 06:13:39;;;;;;;15.88;10.40;;;;;;;18.75;100.00;94369.56;5030500;28;20213;-62
2022/09/11 06:16:10;;;;;;;11.75;9.73;;;;;;;18.73;100.00;94376.69;5030721;28;20206;-62
2022/09/11 06:18:35;;;;;;;9.70;8.68;;;;;;;18.78;100.00;94387.22;5030506;28;20699;-60
2022/09/11 06:21:06;;;;;;;14.00;9.40;;;;;;;18.81;100.00;94384.28;5030489;28;20189;-60
2022/09/11 06:23:33;;;;;;;12.48;10.02;;;;;;;18.90;100.00;94378.81;5030407;28;20563;-60
2022/09/11 06:26:07;;;;;;;12.85;9.73;;;;;;;18.88;100.00;94382.56;5033761;28;20200;-62
2022/09/11 06:28:36;;;;;;;12.10;9.30;;;;;;;18.95;100.00;94393.69;5016147;28;20306;-61
2022/09/11 06:31:11;;;;;;;14.80;10.93;;;;;;;18.90;100.00;94389.13;5033753;28;20250;-62
2022/09/11 06:33:38;;;;;;;11.25;9.73;;;;;;;18.78;100.00;94388.03;5034305;28;20755;-61
2022/09/11 06:36:11;;;;;;;17.33;11.13;;;;;;;18.90;100.00;94391.69;5043779;22;20228;-60
2022/09/11 06:38:39;;;;;;;12.68;10.13;;;;;;;18.95;100.00;94396.28;5033636;28;20301;-61
2022/09/11 06:41:11;;;;;;;13.25;10.32;;;;;;;19.06;100.00;94398.34;5015914;28;20190;-62
2022/09/11 06:43:37;;;;;;;13.65;11.23;;;;;;;19.10;100.00;94407.28;5033581;28;20214;-61
2022/09/11 06:46:14;;;;;;;12.38;10.32;;;;;;;19.32;100.00;94403.69;5033840;28;20223;-60
2022/09/11 06:48:41;;;;;;;14.48;12.20;;;;;;;19.30;100.00;94410.81;5033558;28;20263;-61
2022/09/11 06:51:10;;;;;;;13.50;11.00;;;;;;;19.35;100.00;94418.81;5033434;28;20237;-63
2022/09/11 06:53:36;;;;;;;15.88;11.27;;;;;;;19.54;100.00;94432.78;5033409;28;20212;-62
2022/09/11 06:56:05;;;;;;;12.48;10.93;;;;;;;19.63;100.00;94442.78;5015675;28;20717;-63
2022/09/11 06:58:31;;;;;;;13.45;10.82;;;;;;;19.38;100.00;94431.31;5033482;28;20186;-60
2022/09/11 07:01:03;;;;;;;14.02;9.70;;;;;;;19.37;100.00;94436.66;5033624;28;20198;-61
2022/09/11 07:03:28;;;;;;;11.70;10.50;;;;;;;19.39;100.00;94440.66;5033103;28;20263;-61
2022/09/11 07:05:54;;;;;;;11.82;9.77;;;;;;;19.53;100.00;94455.22;5033779;28;20265;-61
2022/09/11 07:08:19;;;;;;;10.70;9.60;;;;;;;19.48;100.00;94449.81;5033323;28;20232;-62
2022/09/11 07:10:45;;;;;;;11.27;9.10;;;;;;;19.53;100.00;94450.06;5015339;28;20271;-62
2022/09/11 07:13:10;;;;;;;9.48;8.52;;;;;;;19.48;100.00;94479.97;5033130;28;20693;-62
2022/09/11 07:15:35;;;;;;;9.77;8.30;;;;;;;19.45;100.00;94476.00;5033232;28;20214;-62
2022/09/11 07:18:01;;;;;;;9.43;8.52;;;;;;;19.40;100.00;94487.84;5015295;28;20206;-61
2022/09/11 07:20:28;;;;;;;8.32;7.53;;;;;;;19.44;100.00;94491.63;5033124;28;20210;-62
2022/09/11 07:22:54;;;;;;;8.48;7.63;;;;;;;19.49;100.00;94492.69;5033029;28;20197;-62
2022/09/11 07:25:19;;;;;;;11.45;7.88;;;;;;;19.71;100.00;94483.09;5033243;28;20643;-62
2022/09/11 07:27:45;;;;;;;8.60;7.65;;;;;;;19.57;100.00;94477.06;5032890;28;20189;-61
2022/09/11 07:30:11;;;;;;;12.27;10.98;;;;;;;19.77;100.00;94478.00;5032887;28;20214;-61
2022/09/11 07:32:36;;;;;;;12.13;9.23;;;;;;;20.02;100.00;94510.06;5032592;28;20217;-61
2022/09/11 07:35:04;;;;;;;8.05;7.05;;;;;;;20.24;100.00;94503.06;5032542;28;20305;-62
2022/09/11 07:37:29;;;;;;;8.98;8.07;;;;;;;20.51;100.00;94514.28;5031730;28;20202;-61
2022/09/11 07:39:56;;;;;;;10.50;8.95;;;;;;;20.64;100.00;94573.75;5032498;28;20198;-61
2022/09/11 07:42:21;;;;;;;7.78;6.70;;;;;;;20.52;100.00;94583.06;5032838;28;20644;-63
2022/09/11 07:44:46;;;;;;;7.75;6.97;;;;;;;20.51;100.00;94590.00;5032318;28;20202;-61
2022/09/11 07:47:12;;;;;;;7.40;6.72;;;;;;;20.75;100.00;94578.34;5032670;28;20273;-60
2022/09/11 07:49:37;;;;;;;10.57;7.50;;;;;;;20.74;100.00;94602.63;5032277;28;20217;-64
2022/09/11 07:52:03;;;;;;;8.30;7.28;;;;;;;20.74;100.00;94576.78;5014853;28;20233;-62
2022/09/11 07:54:29;;;;;;;7.57;6.88;;;;;;;20.86;100.00;94560.53;5032336;28;20757;-62
2022/09/11 07:56:56;;;;;;;8.95;7.53;;;;;;;21.15;100.00;94528.38;5032602;28;20198;-62
2022/09/11 07:59:23;;;;;;;7.65;6.95;;;;;;;21.49;100.00;94553.31;5032227;28;20205;-62
2022/09/11 08:01:50;;;;;;;6.78;6.07;;;;;;;21.60;99.29;94643.25;5032541;28;20190;-62
2022/09/11 08:04:16;;;;;;;6.78;6.07;;;;;;;21.52;97.78;94654.59;5014668;28;20770;-62
2022/09/11 08:06:41;;;;;;;7.18;6.30;;;;;;;21.62;97.76;94644.66;5014480;28;20191;-62
2022/09/11 08:09:10;;;;;;;6.30;5.80;;;;;;;21.64;96.21;94658.19;5032088;28;20214;-62
2022/09/11 08:11:41;;;;;;;7.07;6.38;;;;;;;21.75;95.60;94656.81;5032495;28;20587;-62
2022/09/11 08:14:10;;;;;;;10.40;7.28;;;;;;;21.89;97.48;94608.47;5032172;28;20213;-62
2022/09/11 08:16:36;;;;;;;7.85;7.05;;;;;;;22.19;97.23;94620.00;5032670;28;20192;-61
2022/09/11 08:19:02;;;;;;;11.23;10.05;;;;;;;22.00;97.39;94600.88;5032250;28;20213;-63
2022/09/11 08:21:28;;;;;;;8.85;8.00;;;;;;;22.07;96.42;94611.25;5032362;28;20273;-62
2022/09/11 08:23:53;;;;;;;9.07;7.88;;;;;;;21.77;97.77;94576.38;5031937;28;20289;-61
2022/09/11 08:26:27;;;;;;;10.50;9.13;;;;;;;21.68;97.56;94581.75;5032158;28;20654;-62
2022/09/11 08:28:54;;;;;;;9.30;8.35;;;;;;;21.90;97.42;94566.84;5031976;28;20202;-63
2022/09/11 08:31:22;;;;;;;11.30;8.02;;;;;;;22.12;96.33;94598.50;5031853;28;20225;-65
2022/09/11 08:33:50;;;;;;;9.32;8.38;;;;;;;22.19;95.53;94613.03;5032027;28;20691;-62
2022/09/11 08:36:16;;;;;;;11.23;9.68;;;;;;;22.40;96.08;94602.41;5032282;28;20212;-61
2022/09/11 08:38:42;;;;;;;11.80;8.80;;;;;;;22.63;93.79;94653.00;5031726;28;20293;-60
2022/09/11 08:41:33;;;;;;;10.18;8.90;;;;;;;22.91;93.51;94645.75;5031961;28;20193;-61
2022/09/11 08:44:05;;;;;;;10.15;9.15;;;;;;;23.16;91.90;94670.81;5031561;28;20218;-62
2022/09/11 08:46:38;;;;;;;9.85;8.85;;;;;;;23.16;91.30;94673.41;5031800;28;20201;-60
2022/09/11 08:49:14;;;;;;;10.85;8.48;;;;;;;23.14;92.06;94646.88;5013716;28;20209;-62
2022/09/11 08:51:41;;;;;;;11.55;8.30;;;;;;;23.02;91.85;94639.94;5031574;28;20303;-61
2022/09/11 08:54:19;;;;;;;9.70;8.75;;;;;;;23.48;90.82;94655.28;5031642;28;20217;-61
2022/09/11 08:56:46;;;;;;;14.63;11.98;;;;;;;23.53;91.62;94638.09;5031939;28;20224;-61
2022/09/11 08:59:21;;;;;;;9.27;8.45;;;;;;;23.45;86.69;94692.06;5031401;28;20285;-62
2022/09/11 09:02:02;;;;;;;12.15;8.75;;;;;;;23.78;84.42;94684.84;5013872;28;20201;-61
2022/09/11 09:04:40;;;;;;;10.35;9.20;;;;;;;24.18;83.43;94688.78;5031313;28;20218;-63
2022/09/11 09:07:26;;;;;;;9.15;8.35;;;;;;;24.24;83.06;94659.34;5013795;28;20197;-61
2022/09/11 09:10:14;;;;;;;10.07;9.18;;;;;;;24.75;73.50;94719.72;5031345;28;20213;-62
2022/09/11 09:13:08;;;;;;;10.15;8.52;;;;;;;24.66;72.44;94720.19;5031297;28;20316;-61
2022/09/11 09:16:04;;;;;;;9.35;8.45;;;;;;;24.64;71.43;94722.22;5013341;28;20308;-63
2022/09/11 09:18:38;;;;;;;12.80;10.48;;;;;;;24.92;71.47;94689.56;5031279;28;20213;-61
2022/09/11 09:21:19;;;;;;;11.15;10.07;;;;;;;24.87;68.71;94738.00;5031501;28;20216;-63
2022/09/11 09:23:50;;;;;;;10.27;7.60;;;;;;;24.52;70.10;94690.94;5031087;28;20615;-61
2022/09/11 09:26:17;;;;;;;9.63;8.63;;;;;;;24.87;69.40;94707.59;5013491;28;20305;-64
2022/09/11 09:28:49;;;;;;;9.60;8.70;;;;;;;25.27;68.79;94691.56;5013225;28;20695;-63
2022/09/11 09:31:27;;;;;;;8.07;7.07;;;;;;;25.17;63.59;94814.38;5013312;28;20249;-61
2022/09/11 09:34:01;;;;;;;7.93;7.18;;;;;;;24.50;64.20;94738.94;5031108;28;20210;-62
2022/09/11 09:36:32;;;;;;;6.95;6.35;;;;;;;24.15;63.29;94754.19;5013172;28;20675;-62
2022/09/11 09:38:58;;;;;;;11.45;8.93;;;;;;;24.15;65.31;94697.84;5030811;28;20300;-62
2022/09/11 09:41:39;;;;;;;13.95;12.65;;;;;;;24.77;64.75;94704.69;5013217;28;20208;-63
2022/09/11 09:44:50;;;;;;;10.38;9.23;;;;;;;24.78;63.40;94732.31;5030886;28;20205;-62
2022/09/11 09:47:16;;;;;;;10.23;8.13;;;;;;;25.17;62.17;94732.91;5013015;28;20690;-62
2022/09/11 09:49:42;;;;;;;9.95;8.13;;;;;;;25.82;60.76;94768.59;5030735;28;20206;-63
2022/09/11 09:52:26;;;;;;;7.95;7.15;;;;;;;26.53;56.86;94852.88;5012867;28;20252;-63
2022/09/11 09:54:51;;;;;;;6.75;6.15;;;;;;;25.98;54.27;94895.66;5030659;28;20743;-62
2022/09/11 09:57:17;;;;;;;6.45;5.88;;;;;;;25.25;54.72;94865.38;5030639;28;20209;-63
2022/09/11 10:00:02;;;;;;;11.07;8.18;;;;;;;25.06;56.31;94803.88;5031801;28;20202;-62
2022/09/11 10:02:44;;;;;;;7.68;6.90;;;;;;;25.96;55.78;94818.75;5016273;28;20189;-60
2022/09/11 10:05:22;;;;;;;7.07;6.47;;;;;;;25.63;53.76;94843.34;5033932;28;20275;-61
2022/09/11 10:08:00;;;;;;;8.13;6.75;;;;;;;26.02;53.97;94830.88;5034313;28;20197;-62
2022/09/11 10:10:33;;;;;;;7.65;6.35;;;;;;;26.35;53.10;94845.09;5034054;28;20339;-64
2022/09/11 10:13:16;;;;;;;7.07;6.47;;;;;;;26.35;52.41;94844.28;5033944;28;20186;-62
2022/09/11 10:15:41;;;;;;;7.72;6.93;;;;;;;26.16;53.66;94791.41;5034402;28;20197;-62
2022/09/11 10:18:29;;;;;;;5.88;5.43;;;;;;;25.95;52.11;94832.78;5033932;28;20178;-63
2022/09/11 10:21:13;;;;;;;6.47;5.88;;;;;;;26.09;52.05;94824.59;5016131;28;20189;-62
2022/09/11 10:23:49;;;;;;;7.55;6.63;;;;;;;26.21;52.98;94809.00;5033679;28;20650;-62
2022/09/11 10:26:17;;;;;;;8.63;6.82;;;;;;;25.73;53.33;94777.75;5033655;28;20186;-65
2022/09/11 10:28:45;;;;;;;7.45;6.75;;;;;;;25.78;52.85;94778.66;5033719;28;20242;-62
2022/09/11 10:31:13;;;;;;;7.50;6.75;;;;;;;26.13;53.67;94768.41;5033925;28;20217;-62
2022/09/11 10:33:40;;;;;;;6.82;6.22;;;;;;;26.41;51.57;94822.53;5033459;28;20221;-61
2022/09/11 10:36:08;;;;;;;7.10;6.28;;;;;;;26.36;50.94;94836.25;5015868;28;20198;-60
2022/09/11 10:38:47;;;;;;;5.30;4.80;;;;;;;26.37;50.77;94839.66;5033550;28;20202;-60
2022/09/11 10:41:12;;;;;;;6.93;6.00;;;;;;;26.93;51.09;94823.56;5033848;28;20201;-63
2022/09/11 10:43:57;;;;;;;7.55;6.53;;;;;;;27.57;49.31;94873.09;5033458;28;20206;-64
2022/09/11 10:46:27;;;;;;;6.07;5.53;;;;;;;27.58;47.88;94908.66;5033332;28;20198;-61
2022/09/11 10:49:05;;;;;;;6.05;5.55;;;;;;;26.83;49.03;94850.22;5033384;28;20213;-61
2022/09/11 10:51:33;;;;;;;7.47;5.72;;;;;;;26.54;49.89;94810.09;5033622;28;20309;-62
2022/09/11 10:54:07;;;;;;;8.13;6.30;;;;;;;26.22;52.23;94743.59;5033120;28;20206;-60
2022/09/11 10:56:39;;;;;;;6.60;6.00;;;;;;;26.29;51.11;94762.56;5033609;28;20277;-61
2022/09/11 10:59:16;;;;;;;8.63;5.70;;;;;;;26.73;51.63;94756.06;5015410;28;20221;-60
2022/09/11 11:01:42;;;;;;;7.53;6.82;;;;;;;27.04;50.99;94773.19;5033355;28;20186;-60
2022/09/11 11:04:11;;;;;;;6.40;5.88;;;;;;;27.23;50.53;94772.06;4999045;28;20218;-60
2022/09/11 11:06:55;;;;;;;6.63;5.57;;;;;;;27.43;51.59;94751.59;5033186;28;20194;-62
2022/09/11 11:09:33;;;;;;;5.80;5.18;;;;;;;27.43;49.42;94809.84;5015257;28;20220;-62
2022/09/11 11:12:08;;;;;;;5.60;5.10;;;;;;;27.52;49.58;94799.03;5032592;28;20216;-61
2022/09/11 11:15:08;;;;;;;6.30;5.75;;;;;;;27.87;48.28;94823.28;5033118;28;20221;-63
2022/09/11 11:17:53;;;;;;;5.93;5.47;;;;;;;27.86;48.43;94840.78;5032873;28;20186;-61
2022/09/11 11:20:51;;;;;;;6.63;6.03;;;;;;;28.00;47.77;94849.97;5032918;28;20208;-62
2022/09/11 11:23:38;;;;;;;5.43;4.93;;;;;;;27.62;47.63;94828.78;5032900;28;20191;-62
2022/09/11 11:26:22;;;;;;;6.63;5.93;;;;;;;27.97;48.54;94795.53;5032981;28;20198;-62
2022/09/11 11:29:21;;;;;;;5.93;5.43;;;;;;;28.90;46.09;94884.06;5032697;28;20208;-63
2022/09/11 11:32:05;;;;;;;6.72;6.05;;;;;;;29.38;44.95;94771.66;5032547;28;20234;-60
2022/09/11 11:34:45;;;;;;;6.00;5.60;;;;;;;29.10;44.61;94737.72;5014975;28;20213;-60
2022/09/11 11:37:27;;;;;;;6.07;5.57;;;;;;;29.07;44.56;94726.94;5032447;28;20209;-62
2022/09/11 11:40:17;;;;;;;5.47;4.97;;;;;;;28.96;43.63;94737.28;5032479;28;20208;-61
2022/09/11 11:43:02;;;;;;;6.05;5.45;;;;;;;28.84;43.89;94725.31;5032524;28;20226;-62